createdAt,value
2018-06-09T00:00:39.966Z,19.60
2018-06-09T00:03:14.172Z,19.60
2018-06-09T00:05:56.343Z,19.50
2018-06-09T00:08:24.544Z,19.50
2018-06-09T00:10:57.982Z,19.50
2018-06-09T00:13:31.276Z,19.50
2018-06-09T00:16:02.277Z,19.50
2018-06-09T00:18:30.867Z,19.50
2018-06-09T00:21:01.153Z,19.40
2018-06-09T00:26:02.126Z,19.30
2018-06-09T00:28:30.400Z,19.30
2018-06-09T00:31:01.351Z,19.30
2018-06-09T00:33:39.851Z,19.20
2018-06-09T00:36:19.913Z,19.10
2018-06-09T00:38:48.163Z,19.10
2018-06-09T00:41:16.463Z,19.10
2018-06-09T00:43:47.684Z,19.10
2018-06-09T00:46:32.838Z,19.00
2018-06-09T00:49:01.329Z,19.00
2018-06-09T00:51:32.049Z,19.00
2018-06-09T00:54:12.506Z,18.90
2018-06-09T00:56:46.318Z,19.00
2018-06-09T00:59:14.626Z,18.90
2018-06-09T01:01:47.761Z,18.90
2018-06-09T01:04:20.242Z,18.90
2018-06-09T01:06:51.757Z,18.90
2018-06-09T01:09:25.014Z,18.90
2018-06-09T01:12:05.135Z,18.90
2018-06-09T01:14:33.461Z,18.90
2018-06-09T01:17:06.670Z,18.80
2018-06-09T01:19:35.170Z,18.80
2018-06-09T01:22:11.383Z,18.80
2018-06-09T01:24:52.038Z,18.80
2018-06-09T01:27:27.515Z,18.80
2018-06-09T01:30:07.406Z,18.80
2018-06-09T01:32:35.846Z,18.80
2018-06-09T01:35:04.246Z,18.70
2018-06-09T01:37:32.489Z,18.70
2018-06-09T01:40:05.811Z,18.70
2018-06-09T01:42:40.348Z,18.60
2018-06-09T01:45:15.051Z,18.60
2018-06-09T01:47:43.342Z,18.60
2018-06-09T01:50:14.243Z,18.60
2018-06-09T01:52:45.019Z,18.60
2018-06-09T01:55:16.100Z,18.60
2018-06-09T01:57:44.376Z,18.50
2018-06-09T02:00:12.702Z,18.50
2018-06-09T02:02:47.419Z,18.60
2018-06-09T02:05:15.684Z,18.50
2018-06-09T02:10:21.961Z,18.50
2018-06-09T02:12:50.447Z,18.50
2018-06-09T02:15:18.940Z,18.50
2018-06-09T02:17:47.200Z,18.50
2018-06-09T02:20:15.507Z,18.50
2018-06-09T02:22:47.916Z,18.50
2018-06-09T02:25:22.715Z,18.50
2018-06-09T02:27:51.016Z,18.50
2018-06-09T02:30:22.022Z,18.50
2018-06-09T02:33:07.370Z,18.50
2018-06-09T02:35:38.618Z,18.40
2018-06-09T02:38:07.048Z,18.40
2018-06-09T02:40:35.377Z,18.40
2018-06-09T02:43:07.837Z,18.40
2018-06-09T02:48:13.747Z,18.40
2018-06-09T02:50:42.000Z,18.40
2018-06-09T02:55:50.060Z,18.30
2018-06-09T02:58:23.331Z,18.30
2018-06-09T03:00:58.977Z,18.30
2018-06-09T03:03:33.616Z,18.30
2018-06-09T03:06:01.874Z,18.30
2018-06-09T03:08:35.939Z,18.30
2018-06-09T03:11:06.471Z,18.20
2018-06-09T03:13:40.611Z,18.20
2018-06-09T03:16:09.085Z,18.20
2018-06-09T03:18:37.588Z,18.20
2018-06-09T03:21:05.873Z,18.20
2018-06-09T03:23:34.553Z,18.10
2018-06-09T03:26:02.796Z,18.10
2018-06-09T03:28:35.378Z,18.10
2018-06-09T03:31:03.775Z,18.10
2018-06-09T03:33:37.006Z,18.10
2018-06-09T03:36:11.626Z,18.10
2018-06-09T03:38:49.836Z,18.10
2018-06-09T03:41:24.524Z,18.10
2018-06-09T03:43:52.824Z,18.10
2018-06-09T03:46:27.423Z,18.00
2018-06-09T03:48:58.432Z,18.00
2018-06-09T03:51:38.248Z,18.00
2018-06-09T03:54:10.537Z,18.00
2018-06-09T03:56:41.528Z,18.00
2018-06-09T03:59:10.022Z,18.00
2018-06-09T04:01:38.341Z,18.00
2018-06-09T04:04:06.579Z,18.00
2018-06-09T04:06:43.258Z,18.00
2018-06-09T04:09:11.547Z,18.00
2018-06-09T04:11:43.670Z,18.00
2018-06-09T04:14:15.020Z,18.00
2018-06-09T04:16:51.190Z,18.00
2018-06-09T04:19:19.497Z,18.10
2018-06-09T04:21:52.776Z,18.10
2018-06-09T04:24:26.212Z,18.10
2018-06-09T04:26:59.278Z,18.10
2018-06-09T04:29:29.599Z,18.10
2018-06-09T04:31:57.902Z,18.20
2018-06-09T04:34:26.098Z,18.20
2018-06-09T04:37:00.733Z,18.20
2018-06-09T04:39:33.186Z,18.20
2018-06-09T04:42:04.657Z,18.20
2018-06-09T04:44:35.767Z,18.20
2018-06-09T04:47:07.319Z,18.20
2018-06-09T04:49:45.636Z,18.30
2018-06-09T04:52:20.383Z,18.30
2018-06-09T04:54:53.498Z,18.40
2018-06-09T04:57:26.847Z,18.40
2018-06-09T04:59:57.184Z,18.50
2018-06-09T05:05:07.920Z,18.70
2018-06-09T05:07:36.260Z,18.80
2018-06-09T05:10:09.037Z,18.90
2018-06-09T05:15:12.487Z,19.10
2018-06-09T05:17:48.717Z,19.30
2018-06-09T05:20:19.777Z,19.40
2018-06-09T05:22:48.107Z,19.60
2018-06-09T05:25:16.343Z,19.60
2018-06-09T05:27:51.017Z,19.70
2018-06-09T05:30:19.315Z,19.70
2018-06-09T05:32:54.067Z,19.80
2018-06-09T05:35:22.296Z,19.80
2018-06-09T05:37:56.966Z,19.90
2018-06-09T05:40:25.215Z,19.90
2018-06-09T05:42:58.357Z,20.00
2018-06-09T05:45:38.014Z,20.10
2018-06-09T05:48:12.471Z,20.10
2018-06-09T05:50:49.261Z,20.10
2018-06-09T05:53:17.590Z,20.20
2018-06-09T05:55:53.617Z,20.30
2018-06-09T05:58:24.007Z,20.40
2018-06-09T06:00:55.251Z,20.50
2018-06-09T06:03:24.168Z,20.60
2018-06-09T06:06:06.403Z,20.60
2018-06-09T06:08:39.636Z,20.70
2018-06-09T06:11:07.882Z,20.80
2018-06-09T06:13:36.131Z,20.80
2018-06-09T06:16:08.777Z,20.80
2018-06-09T06:18:37.051Z,20.90
2018-06-09T06:21:11.379Z,21.00
2018-06-09T06:23:45.388Z,21.00
2018-06-09T06:26:13.647Z,20.90
2018-06-09T06:28:41.918Z,21.00
2018-06-09T06:31:13.209Z,21.00
2018-06-09T06:33:44.790Z,21.10
2018-06-09T06:36:19.179Z,21.10
2018-06-09T06:38:50.208Z,21.10
2018-06-09T06:41:18.482Z,21.10
2018-06-09T06:43:46.835Z,21.10
2018-06-09T06:46:21.166Z,21.20
2018-06-09T06:48:54.317Z,21.20
2018-06-09T06:51:24.589Z,21.30
2018-06-09T06:53:52.845Z,21.30
2018-06-09T06:56:23.985Z,21.50
2018-06-09T06:58:59.396Z,21.70
2018-06-09T07:01:30.489Z,21.90
2018-06-09T07:03:58.765Z,22.10
2018-06-09T07:06:27.041Z,22.50
2018-06-09T07:09:01.630Z,22.80
2018-06-09T07:11:36.272Z,22.90
2018-06-09T07:14:04.777Z,23.10
2018-06-09T07:16:33.159Z,23.20
2018-06-09T07:19:01.525Z,23.40
2018-06-09T07:21:36.675Z,23.60
2018-06-09T07:24:05.149Z,23.90
2018-06-09T07:26:39.493Z,24.10
2018-06-09T07:29:21.685Z,24.30
2018-06-09T07:31:50.239Z,24.50
2018-06-09T07:34:21.439Z,24.60
2018-06-09T07:36:49.684Z,24.70
2018-06-09T07:39:24.386Z,24.80
2018-06-09T07:41:52.669Z,24.80
2018-06-09T07:44:25.379Z,24.80
2018-06-09T07:46:53.675Z,24.80
2018-06-09T07:49:21.887Z,24.60
2018-06-09T07:51:52.946Z,24.50
2018-06-09T07:54:21.786Z,24.40
2018-06-09T07:56:50.309Z,24.50
2018-06-09T07:59:26.659Z,24.60
2018-06-09T08:01:54.947Z,24.60
2018-06-09T08:04:23.410Z,24.60
2018-06-09T08:09:24.387Z,24.40
2018-06-09T08:11:52.848Z,24.40
2018-06-09T08:14:21.193Z,24.40
2018-06-09T08:16:49.432Z,24.50
2018-06-09T08:19:20.764Z,24.50
2018-06-09T08:21:54.243Z,24.60
2018-06-09T08:24:34.390Z,24.70
2018-06-09T08:27:04.475Z,24.90
2018-06-09T08:29:32.709Z,25.00
2018-06-09T08:32:06.186Z,25.20
2018-06-09T08:34:41.461Z,25.50
2018-06-09T08:37:21.487Z,25.80
2018-06-09T08:39:51.767Z,26.10
2018-06-09T08:42:20.006Z,26.20
2018-06-09T08:44:53.144Z,26.40
2018-06-09T08:47:25.572Z,26.70
2018-06-09T08:49:57.107Z,27.00
2018-06-09T08:52:28.555Z,27.40
2018-06-09T08:54:59.912Z,27.60
2018-06-09T08:57:42.214Z,27.70
2018-06-09T09:00:13.624Z,27.80
2018-06-09T09:02:41.931Z,27.70
2018-06-09T09:05:10.212Z,27.60
2018-06-09T09:07:43.339Z,27.40
2018-06-09T09:10:23.378Z,27.30
2018-06-09T09:12:51.696Z,27.40
2018-06-09T09:15:19.922Z,27.40
2018-06-09T09:17:51.144Z,27.50
2018-06-09T09:20:22.314Z,27.70
2018-06-09T09:22:50.873Z,27.90
2018-06-09T09:25:19.366Z,28.20
2018-06-09T09:27:47.654Z,28.40
2018-06-09T09:30:16.007Z,28.40
2018-06-09T09:32:47.046Z,28.50
2018-06-09T09:35:19.573Z,28.60
2018-06-09T09:37:56.090Z,28.80
2018-06-09T09:40:38.143Z,29.10
2018-06-09T09:43:06.608Z,29.20
2018-06-09T09:45:34.836Z,29.60
2018-06-09T09:48:03.138Z,29.80
2018-06-09T09:50:40.047Z,30.10
2018-06-09T09:53:08.710Z,30.40
2018-06-09T09:58:22.571Z,31.00
2018-06-09T10:00:52.939Z,31.40
2018-06-09T10:03:23.345Z,31.50
2018-06-09T10:05:51.779Z,31.70
2018-06-09T10:10:53.494Z,31.60
2018-06-09T10:13:21.815Z,31.70
2018-06-09T10:15:56.508Z,31.50
2018-06-09T10:18:24.747Z,31.30
2018-06-09T10:21:04.743Z,31.30
2018-06-09T10:23:36.007Z,31.30
2018-06-09T10:26:04.406Z,31.20
2018-06-09T10:28:32.683Z,31.00
2018-06-09T10:31:07.450Z,31.00
2018-06-09T10:33:35.670Z,31.10
2018-06-09T10:36:07.205Z,31.20
2018-06-09T10:38:35.490Z,31.50
2018-06-09T10:41:06.678Z,31.70
2018-06-09T10:43:46.729Z,31.60
2018-06-09T10:46:14.951Z,31.60
2018-06-09T10:48:48.818Z,31.70
2018-06-09T10:51:17.303Z,31.60
2018-06-09T10:53:58.545Z,31.40
2018-06-09T10:56:33.823Z,31.40
2018-06-09T10:59:02.185Z,31.40
2018-06-09T11:01:34.011Z,31.30
2018-06-09T11:04:02.567Z,31.40
2018-06-09T11:06:33.026Z,31.50
2018-06-09T11:09:01.491Z,31.60
2018-06-09T11:14:08.818Z,31.60
2018-06-09T11:16:43.470Z,31.70
2018-06-09T11:19:20.121Z,31.70
2018-06-09T11:21:48.410Z,31.60
2018-06-09T11:24:21.675Z,31.60
2018-06-09T11:26:54.963Z,31.50
2018-06-09T11:29:25.383Z,31.50
2018-06-09T11:31:56.566Z,31.90
2018-06-09T11:34:24.799Z,32.00
2018-06-09T11:36:57.195Z,32.20
2018-06-09T11:42:05.308Z,32.20
2018-06-09T11:44:33.617Z,32.50
2018-06-09T11:47:06.887Z,32.70
2018-06-09T11:49:42.434Z,32.60
2018-06-09T11:52:17.878Z,32.40
2018-06-09T11:54:57.788Z,32.60
2018-06-09T11:57:26.188Z,32.60
2018-06-09T11:59:54.726Z,32.80
2018-06-09T12:02:23.162Z,32.90
2018-06-09T12:04:51.548Z,33.00
2018-06-09T12:07:19.856Z,33.00
2018-06-09T12:09:52.306Z,33.30
2018-06-09T12:12:29.919Z,33.30
2018-06-09T12:14:58.239Z,33.30
2018-06-09T12:17:29.221Z,33.20
2018-06-09T12:20:07.723Z,33.30
2018-06-09T12:22:47.889Z,33.50
2018-06-09T12:25:16.464Z,33.30
2018-06-09T12:27:47.856Z,33.10
2018-06-09T12:30:16.282Z,33.00
2018-06-09T12:32:44.844Z,32.90
2018-06-09T12:35:13.074Z,32.90
2018-06-09T12:37:41.486Z,33.00
2018-06-09T12:40:11.849Z,33.10
2018-06-09T12:42:46.450Z,33.30
2018-06-09T12:45:19.791Z,33.60
2018-06-09T12:47:54.907Z,33.70
2018-06-09T12:50:23.457Z,33.80
2018-06-09T12:53:03.572Z,33.90
2018-06-09T12:55:34.048Z,33.80
2018-06-09T12:58:02.552Z,33.60
2018-06-09T13:00:33.114Z,33.70
2018-06-09T13:03:04.320Z,33.30
2018-06-09T13:05:32.626Z,33.40
2018-06-09T13:08:12.519Z,33.50
2018-06-09T13:10:42.793Z,33.70
2018-06-09T13:13:11.233Z,33.60
2018-06-09T13:15:39.632Z,33.40
2018-06-09T13:18:07.930Z,33.20
2018-06-09T13:20:39.004Z,32.80
2018-06-09T13:23:17.386Z,32.80
2018-06-09T13:25:45.642Z,32.90
2018-06-09T13:28:13.928Z,32.90
2018-06-09T13:30:42.180Z,32.80
2018-06-09T13:33:13.229Z,32.70
2018-06-09T13:35:44.553Z,32.50
2018-06-09T13:38:12.855Z,32.70
2018-06-09T13:40:41.172Z,33.00
2018-06-09T13:43:12.371Z,33.00
2018-06-09T13:45:44.058Z,33.10
2018-06-09T13:48:20.828Z,33.60
2018-06-09T13:50:49.076Z,33.80
2018-06-09T13:53:25.106Z,33.90
2018-06-09T13:55:55.335Z,34.00
2018-06-09T13:58:23.779Z,34.00
2018-06-09T14:00:51.999Z,34.00
2018-06-09T14:03:23.086Z,33.60
2018-06-09T14:06:07.250Z,33.20
2018-06-09T14:08:35.610Z,33.00
2018-06-09T14:11:04.094Z,33.10
2018-06-09T14:13:32.443Z,33.20
2018-06-09T14:16:05.613Z,33.10
2018-06-09T14:18:41.288Z,33.00
2018-06-09T14:21:12.648Z,33.20
2018-06-09T14:23:46.124Z,33.20
2018-06-09T14:26:19.495Z,33.10
2018-06-09T14:28:50.642Z,33.30
2018-06-09T14:31:23.286Z,33.60
2018-06-09T14:33:57.752Z,33.70
2018-06-09T14:36:35.071Z,33.80
2018-06-09T14:39:11.277Z,33.80
2018-06-09T14:41:39.851Z,33.60
2018-06-09T14:44:08.084Z,33.50
2018-06-09T14:46:36.377Z,33.40
2018-06-09T14:49:08.977Z,33.30
2018-06-09T14:51:37.215Z,33.40
2018-06-09T14:54:11.959Z,33.60
2018-06-09T14:56:40.239Z,33.80
2018-06-09T14:59:09.180Z,34.10
2018-06-09T15:04:09.820Z,34.40
2018-06-09T15:06:38.004Z,34.40
2018-06-09T15:09:08.258Z,34.50
2018-06-09T15:11:41.639Z,34.70
2018-06-09T15:14:18.054Z,34.90
2018-06-09T15:16:48.322Z,34.90
2018-06-09T15:19:16.612Z,34.70
2018-06-09T15:21:44.860Z,34.70
2018-06-09T15:24:24.922Z,34.70
2018-06-09T15:26:53.188Z,34.50
2018-06-09T15:29:21.379Z,34.50
2018-06-09T15:31:55.960Z,34.60
2018-06-09T15:34:24.203Z,34.60
2018-06-09T15:36:56.827Z,34.40
2018-06-09T15:39:29.215Z,34.40
2018-06-09T15:42:03.873Z,34.40
2018-06-09T15:44:32.235Z,34.40
2018-06-09T15:47:03.307Z,34.30
2018-06-09T15:49:34.396Z,34.20
2018-06-09T15:52:02.455Z,34.30
2018-06-09T15:54:41.068Z,34.30
2018-06-09T15:57:11.355Z,34.30
2018-06-09T15:59:45.742Z,34.30
2018-06-09T16:02:13.846Z,34.40
2018-06-09T16:04:41.898Z,34.20
2018-06-09T16:07:15.526Z,34.10
2018-06-09T16:09:43.579Z,33.80
2018-06-09T16:12:17.566Z,33.70
2018-06-09T16:14:46.086Z,33.60
2018-06-09T16:17:14.689Z,33.60
2018-06-09T16:19:42.958Z,33.50
2018-06-09T16:22:11.093Z,33.50
2018-06-09T16:24:39.173Z,33.40
2018-06-09T16:27:07.423Z,33.40
2018-06-09T16:29:45.462Z,33.50
2018-06-09T16:32:22.269Z,33.30
2018-06-09T16:34:50.565Z,33.30
2018-06-09T16:37:21.200Z,33.20
2018-06-09T16:39:49.322Z,33.10
2018-06-09T16:42:19.754Z,33.10
2018-06-09T16:44:52.169Z,32.90
2018-06-09T16:47:23.546Z,32.70
2018-06-09T16:49:56.619Z,32.60
2018-06-09T16:52:24.822Z,32.70
2018-06-09T16:54:52.915Z,32.60
2018-06-09T16:57:21.110Z,32.70
2018-06-09T16:59:49.803Z,32.80
2018-06-09T17:02:18.411Z,32.80
2018-06-09T17:04:46.553Z,32.70
2018-06-09T17:07:21.418Z,32.60
2018-06-09T17:12:19.697Z,32.40
2018-06-09T17:14:54.333Z,32.20
2018-06-09T17:17:25.163Z,32.30
2018-06-09T17:19:53.203Z,32.30
2018-06-09T17:22:25.720Z,32.40
2018-06-09T17:25:06.440Z,32.40
2018-06-09T17:27:34.674Z,32.50
2018-06-09T17:30:09.949Z,32.60
2018-06-09T17:32:40.165Z,32.60
2018-06-09T17:35:10.567Z,32.60
2018-06-09T17:37:38.575Z,32.50
2018-06-09T17:40:09.685Z,32.60
2018-06-09T17:42:39.896Z,32.60
2018-06-09T17:45:07.947Z,32.60
2018-06-09T17:47:35.991Z,32.60
2018-06-09T17:50:04.180Z,32.60
2018-06-09T17:52:41.951Z,32.70
2018-06-09T17:55:10.004Z,32.60
2018-06-09T17:57:44.817Z,32.70
2018-06-09T18:00:13.077Z,32.80
2018-06-09T18:02:41.347Z,32.70
2018-06-09T18:05:12.611Z,32.60
2018-06-09T18:07:47.019Z,32.60
2018-06-09T18:10:18.698Z,32.50
2018-06-09T18:12:49.712Z,32.40
2018-06-09T18:17:50.241Z,32.00
2018-06-09T18:20:30.179Z,31.70
2018-06-09T18:23:00.551Z,31.40
2018-06-09T18:25:28.814Z,31.00
2018-06-09T18:27:57.089Z,30.70
2018-06-09T18:30:31.843Z,30.50
2018-06-09T18:33:00.094Z,30.20
2018-06-09T18:35:33.178Z,30.00
2018-06-09T18:43:12.308Z,29.50
2018-06-09T18:45:40.733Z,29.40
2018-06-09T18:48:08.990Z,29.10
2018-06-09T18:50:41.630Z,29.00
2018-06-09T18:53:09.856Z,28.80
2018-06-09T18:55:45.874Z,28.60
2018-06-09T18:58:16.472Z,28.50
2018-06-09T19:00:47.921Z,28.30
2018-06-09T19:03:21.313Z,28.10
2018-06-09T19:05:53.620Z,28.00
2018-06-09T19:08:21.949Z,27.90
2018-06-09T19:10:50.317Z,27.80
2018-06-09T19:13:18.685Z,27.60
2018-06-09T19:15:53.136Z,27.50
2018-06-09T19:18:25.672Z,27.30
2018-06-09T19:20:58.422Z,27.20
2018-06-09T19:23:26.635Z,27.20
2018-06-09T19:26:01.656Z,27.00
2018-06-09T19:28:31.948Z,27.00
2018-06-09T19:31:03.154Z,26.90
2018-06-09T19:33:31.429Z,26.80
2018-06-09T19:36:08.864Z,26.80
2018-06-09T19:38:39.206Z,26.70
2018-06-09T19:41:19.160Z,26.70
2018-06-09T19:43:47.568Z,26.70
2018-06-09T19:46:15.935Z,26.60
2018-06-09T19:48:44.281Z,26.60
2018-06-09T19:51:17.712Z,26.50
2018-06-09T19:53:50.292Z,26.40
2018-06-09T19:58:54.697Z,26.30
2018-06-09T20:01:27.112Z,26.30
2018-06-09T20:04:00.522Z,26.20
2018-06-09T20:06:39.214Z,26.10
2018-06-09T20:09:08.095Z,26.00
2018-06-09T20:11:36.355Z,26.00
2018-06-09T20:14:17.034Z,26.00
2018-06-09T20:16:45.218Z,25.90
2018-06-09T20:19:18.298Z,25.80
2018-06-09T20:21:51.880Z,25.70
2018-06-09T20:24:27.561Z,25.70
2018-06-09T20:27:00.082Z,25.50
2018-06-09T20:29:33.410Z,25.30
2018-06-09T20:34:39.216Z,25.10
2018-06-09T20:37:13.671Z,25.00
2018-06-09T20:39:46.154Z,24.80
2018-06-09T20:42:19.204Z,24.70
2018-06-09T20:44:51.722Z,24.60
2018-06-09T20:47:22.895Z,24.50
2018-06-09T20:49:51.233Z,24.50
2018-06-09T20:52:23.700Z,24.50
2018-06-09T20:54:52.240Z,24.50
2018-06-09T20:57:20.536Z,24.40
2018-06-09T20:59:51.784Z,24.40
2018-06-09T21:02:25.083Z,24.30
2018-06-09T21:04:56.634Z,24.30
2018-06-09T21:07:28.947Z,24.20
2018-06-09T21:09:57.377Z,24.20
2018-06-09T21:12:25.730Z,24.10
2018-06-09T21:14:54.067Z,24.10
2018-06-09T21:17:33.978Z,24.10
2018-06-09T21:20:06.472Z,24.00
2018-06-09T21:22:38.785Z,23.90
2018-06-09T21:25:07.499Z,23.90
2018-06-09T21:27:46.423Z,23.90
2018-06-09T21:30:17.022Z,23.80
2018-06-09T21:32:47.443Z,23.80
2018-06-09T21:35:32.452Z,23.70
2018-06-09T21:38:11.087Z,23.70
2018-06-09T21:40:45.035Z,23.60
2018-06-09T21:43:24.308Z,23.60
2018-06-09T21:45:56.778Z,23.60
2018-06-09T21:48:29.067Z,23.50
2018-06-09T21:50:57.504Z,23.40
2018-06-09T21:53:25.755Z,23.40
2018-06-09T21:55:53.971Z,23.30
2018-06-09T21:58:25.052Z,23.20
2018-06-09T22:00:53.561Z,23.20
2018-06-09T22:03:23.775Z,23.10
2018-06-09T22:05:52.068Z,23.00
2018-06-09T22:08:25.215Z,23.00
2018-06-09T22:10:58.987Z,23.00
2018-06-09T22:13:38.084Z,23.00
2018-06-09T22:16:08.571Z,22.90
2018-06-09T22:18:39.589Z,22.90
2018-06-09T22:21:07.888Z,22.90
2018-06-09T22:23:40.271Z,22.80
2018-06-09T22:26:15.263Z,22.80
2018-06-09T22:28:46.713Z,22.80
2018-06-09T22:31:17.388Z,22.70
2018-06-09T22:33:51.581Z,22.70
2018-06-09T22:36:20.048Z,22.70
2018-06-09T22:38:48.594Z,22.60
2018-06-09T22:41:17.246Z,22.60
2018-06-09T22:43:55.755Z,22.50
2018-06-09T22:46:28.099Z,22.50
2018-06-09T22:48:59.674Z,22.50
2018-06-09T22:51:33.023Z,22.40
2018-06-09T22:54:03.634Z,22.40
2018-06-09T22:56:36.966Z,22.40
2018-06-09T22:59:07.545Z,22.40
2018-06-09T23:01:41.563Z,22.40
2018-06-09T23:04:09.806Z,22.40
2018-06-09T23:06:42.494Z,22.30
2018-06-09T23:09:10.748Z,22.30
2018-06-09T23:11:45.906Z,22.20
2018-06-09T23:14:18.295Z,22.10
2018-06-09T23:16:49.671Z,22.10
2018-06-09T23:19:19.827Z,22.00
2018-06-09T23:21:48.080Z,21.90
2018-06-09T23:24:28.840Z,21.90
2018-06-09T23:26:57.067Z,21.80
2018-06-09T23:29:28.594Z,21.70
2018-06-09T23:31:56.861Z,21.60
2018-06-09T23:34:32.400Z,21.50
2018-06-09T23:39:33.583Z,21.50
2018-06-09T23:42:01.870Z,21.40
2018-06-09T23:44:34.365Z,21.30
2018-06-09T23:47:08.698Z,21.30
2018-06-09T23:52:08.369Z,21.10
2018-06-09T23:54:39.847Z,21.00
2018-06-09T23:57:21.934Z,21.00
2018-06-09T23:59:50.502Z,21.00
